createdAt,value
2017-11-20T00:00:35.300Z,1012.30
2017-11-20T00:01:35.287Z,1012.26
2017-11-20T00:02:35.280Z,1012.28
2017-11-20T00:03:35.265Z,1012.31
2017-11-20T00:04:35.254Z,1012.27
2017-11-20T00:05:35.245Z,1012.27
2017-11-20T00:06:35.241Z,1012.29
2017-11-20T00:07:35.222Z,1012.24
2017-11-20T00:08:35.213Z,1012.28
2017-11-20T00:09:35.200Z,1012.31
2017-11-20T00:10:35.189Z,1012.27
2017-11-20T00:11:35.176Z,1012.26
2017-11-20T00:12:35.166Z,1012.27
2017-11-20T00:13:35.156Z,1012.26
2017-11-20T00:14:35.144Z,1012.25
2017-11-20T00:15:35.136Z,1012.24
2017-11-20T00:16:35.125Z,1012.25
2017-11-20T00:17:35.112Z,1012.22
2017-11-20T00:18:35.101Z,1012.23
2017-11-20T00:19:35.093Z,1012.27
2017-11-20T00:20:35.079Z,1012.21
2017-11-20T00:21:35.067Z,1012.23
2017-11-20T00:22:35.057Z,1012.24
2017-11-20T00:23:35.052Z,1012.22
2017-11-20T00:24:35.037Z,1012.21
2017-11-20T00:25:35.044Z,1012.22
2017-11-20T00:26:35.015Z,1012.22
2017-11-20T00:27:35.000Z,1012.22
2017-11-20T00:28:34.989Z,1012.25
2017-11-20T00:29:34.982Z,1012.24
2017-11-20T00:30:34.967Z,1012.24
2017-11-20T00:31:34.962Z,1012.21
2017-11-20T00:32:34.946Z,1012.22
2017-11-20T00:33:34.938Z,1012.24
2017-11-20T00:34:34.925Z,1012.23
2017-11-20T00:35:34.914Z,1012.20
2017-11-20T00:36:34.902Z,1012.24
2017-11-20T00:37:34.910Z,1012.27
2017-11-20T00:38:34.914Z,1012.26
2017-11-20T00:39:34.917Z,1012.12
2017-11-20T00:40:34.863Z,1012.18
2017-11-20T00:41:34.855Z,1012.12
2017-11-20T00:42:34.871Z,1012.14
2017-11-20T00:43:34.840Z,1012.12
2017-11-20T00:44:34.827Z,1012.09
2017-11-20T00:45:34.816Z,1012.12
2017-11-20T00:46:34.793Z,1012.10
2017-11-20T00:47:34.802Z,1012.07
2017-11-20T00:48:34.838Z,1012.12
2017-11-20T00:49:34.777Z,1012.06
2017-11-20T00:50:34.764Z,1012.08
2017-11-20T00:51:34.777Z,1012.07
2017-11-20T00:52:34.731Z,1012.05
2017-11-20T00:53:34.748Z,1012.06
2017-11-20T00:54:34.722Z,1012.05
2017-11-20T00:55:34.707Z,1012.09
2017-11-20T00:56:34.709Z,1012.11
2017-11-20T00:57:34.741Z,1012.09
2017-11-20T00:58:34.663Z,1012.04
2017-11-20T00:59:34.664Z,1012.08
2017-11-20T01:00:34.661Z,1012.12
2017-11-20T01:01:34.631Z,1012.10
2017-11-20T01:02:34.616Z,1012.13
2017-11-20T01:03:34.676Z,1012.13
2017-11-20T01:04:34.595Z,1012.15
2017-11-20T01:05:34.595Z,1012.15
2017-11-20T01:06:34.585Z,1012.16
2017-11-20T01:07:34.562Z,1012.14
2017-11-20T01:08:34.563Z,1012.11
2017-11-20T01:09:34.541Z,1012.12
2017-11-20T01:10:34.525Z,1012.09
2017-11-20T01:11:34.514Z,1012.10
2017-11-20T01:12:34.503Z,1012.10
2017-11-20T01:13:34.491Z,1012.12
2017-11-20T01:14:34.481Z,1012.12
2017-11-20T01:15:34.468Z,1012.11
2017-11-20T01:16:34.457Z,1012.11
2017-11-20T01:17:34.447Z,1012.20
2017-11-20T01:18:34.435Z,1012.15
2017-11-20T01:19:34.422Z,1012.18
2017-11-20T01:20:34.413Z,1012.15
2017-11-20T01:21:34.404Z,1012.19
2017-11-20T01:22:34.390Z,1012.13
2017-11-20T01:23:34.387Z,1012.14
2017-11-20T01:24:34.365Z,1012.13
2017-11-20T01:25:34.357Z,1012.09
2017-11-20T01:26:34.350Z,1012.06
2017-11-20T01:27:34.339Z,1012.07
2017-11-20T01:28:34.324Z,1012.02
2017-11-20T01:29:34.328Z,1012.00
2017-11-20T01:30:34.304Z,1012.01
2017-11-20T01:31:34.295Z,1012.02
2017-11-20T01:32:34.277Z,1012.04
2017-11-20T01:33:34.266Z,1012.03
2017-11-20T01:34:34.254Z,1012.03
2017-11-20T01:35:34.246Z,1012.02
2017-11-20T01:36:34.233Z,1012.00
2017-11-20T01:37:34.222Z,1011.98
2017-11-20T01:38:34.214Z,1011.96
2017-11-20T01:39:34.203Z,1012.01
2017-11-20T01:40:34.189Z,1012.00
2017-11-20T01:41:34.180Z,1012.03
2017-11-20T01:42:34.164Z,1012.04
2017-11-20T01:43:34.153Z,1012.01
2017-11-20T01:44:34.145Z,1012.01
2017-11-20T01:45:34.130Z,1011.99
2017-11-20T01:46:34.119Z,1011.98
2017-11-20T01:47:34.108Z,1011.97
2017-11-20T01:48:34.098Z,1012.01
2017-11-20T01:49:34.090Z,1012.01
2017-11-20T01:50:34.084Z,1012.04
2017-11-20T01:51:34.064Z,1012.00
2017-11-20T01:52:34.051Z,1011.99
2017-11-20T01:53:34.040Z,1012.03
2017-11-20T01:54:34.038Z,1012.04
2017-11-20T01:55:34.023Z,1012.01
2017-11-20T01:56:34.010Z,1012.02
2017-11-20T01:57:33.999Z,1012.03
2017-11-20T01:58:33.985Z,1012.02
2017-11-20T01:59:33.974Z,1012.04
2017-11-20T02:00:33.965Z,1012.04
2017-11-20T02:01:33.957Z,1012.06
2017-11-20T02:02:33.946Z,1012.04
2017-11-20T02:03:33.936Z,1012.03
2017-11-20T02:04:33.918Z,1012.05
2017-11-20T02:05:33.909Z,1012.02
2017-11-20T02:06:33.910Z,1012.03
2017-11-20T02:07:33.886Z,1012.04
2017-11-20T02:08:33.873Z,1011.99
2017-11-20T02:09:33.866Z,1012.00
2017-11-20T02:10:33.854Z,1011.98
2017-11-20T02:11:33.843Z,1011.97
2017-11-20T02:12:33.832Z,1012.00
2017-11-20T02:13:33.817Z,1012.01
2017-11-20T02:14:33.808Z,1011.97
2017-11-20T02:15:33.798Z,1011.98
2017-11-20T02:16:33.783Z,1011.92
2017-11-20T02:17:33.776Z,1011.97
2017-11-20T02:18:33.764Z,1011.95
2017-11-20T02:19:33.751Z,1011.89
2017-11-20T02:20:33.739Z,1011.91
2017-11-20T02:21:33.733Z,1011.86
2017-11-20T02:22:33.720Z,1011.87
2017-11-20T02:23:33.707Z,1011.88
2017-11-20T02:24:33.702Z,1011.89
2017-11-20T02:25:33.684Z,1011.89
2017-11-20T02:26:33.685Z,1011.92
2017-11-20T02:27:33.665Z,1011.95
2017-11-20T02:28:33.652Z,1011.86
2017-11-20T02:29:33.641Z,1011.88
2017-11-20T02:30:33.636Z,1011.83
2017-11-20T02:31:33.620Z,1011.86
2017-11-20T02:32:33.611Z,1011.84
2017-11-20T02:33:33.596Z,1011.88
2017-11-20T02:34:33.588Z,1011.84
2017-11-20T02:35:33.581Z,1011.83
2017-11-20T02:36:33.565Z,1011.81
2017-11-20T02:37:33.556Z,1011.83
2017-11-20T02:38:33.551Z,1011.79
2017-11-20T02:39:33.542Z,1011.76
2017-11-20T02:40:33.562Z,1011.72
2017-11-20T02:41:33.512Z,1011.81
2017-11-20T02:42:33.499Z,1011.88
2017-11-20T02:43:33.493Z,1011.84
2017-11-20T02:44:33.477Z,1011.85
2017-11-20T02:45:33.468Z,1011.85
2017-11-20T02:46:33.461Z,1011.81
2017-11-20T02:47:33.445Z,1011.81
2017-11-20T02:48:33.442Z,1011.83
2017-11-20T02:49:33.442Z,1011.87
2017-11-20T02:50:33.414Z,1011.84
2017-11-20T02:51:33.411Z,1011.83
2017-11-20T02:52:33.393Z,1011.77
2017-11-20T02:53:33.379Z,1011.76
2017-11-20T02:54:48.373Z,1011.75
2017-11-20T02:55:33.362Z,1011.70
2017-11-20T02:56:33.346Z,1011.65
2017-11-20T02:57:33.340Z,1011.69
2017-11-20T02:58:33.325Z,1011.73
2017-11-20T02:59:33.328Z,1011.68
2017-11-20T03:00:33.303Z,1011.65
2017-11-20T03:01:33.296Z,1011.65
2017-11-20T03:02:33.278Z,1011.64
2017-11-20T03:03:33.271Z,1011.67
2017-11-20T03:04:33.262Z,1011.63
2017-11-20T03:05:33.252Z,1011.58
2017-11-20T03:06:33.235Z,1011.57
2017-11-20T03:07:33.231Z,1011.58
2017-11-20T03:08:33.220Z,1011.60
2017-11-20T03:09:33.207Z,1011.61
2017-11-20T03:10:33.192Z,1011.60
2017-11-20T03:11:33.180Z,1011.62
2017-11-20T03:12:33.169Z,1011.64
2017-11-20T03:13:33.158Z,1011.61
2017-11-20T03:14:33.162Z,1011.62
2017-11-20T03:15:33.147Z,1011.65
2017-11-20T03:16:33.128Z,1011.61
2017-11-20T03:17:33.115Z,1011.62
2017-11-20T03:18:33.130Z,1011.63
2017-11-20T03:19:33.091Z,1011.69
2017-11-20T03:20:33.087Z,1011.64
2017-11-20T03:21:33.070Z,1011.62
2017-11-20T03:22:33.059Z,1011.60
2017-11-20T03:23:33.061Z,1011.65
2017-11-20T03:24:33.039Z,1011.62
2017-11-20T03:25:33.026Z,1011.63
2017-11-20T03:26:33.013Z,1011.64
2017-11-20T03:27:33.002Z,1011.65
2017-11-20T03:28:32.993Z,1011.66
2017-11-20T03:29:32.998Z,1011.63
2017-11-20T03:30:33.013Z,1011.60
2017-11-20T03:31:32.960Z,1011.58
2017-11-20T03:32:32.957Z,1011.57
2017-11-20T03:33:32.954Z,1011.58
2017-11-20T03:34:32.930Z,1011.60
2017-11-20T03:35:32.916Z,1011.59
2017-11-20T03:36:32.910Z,1011.56
2017-11-20T03:37:32.896Z,1011.60
2017-11-20T03:38:32.886Z,1011.63
2017-11-20T03:39:32.872Z,1011.63
2017-11-20T03:40:32.864Z,1011.63
2017-11-20T03:41:32.849Z,1011.64
2017-11-20T03:42:32.838Z,1011.63
2017-11-20T03:43:32.828Z,1011.63
2017-11-20T03:44:32.844Z,1011.61
2017-11-20T03:45:32.804Z,1011.69
2017-11-20T03:46:32.798Z,1011.66
2017-11-20T03:47:32.783Z,1011.68
2017-11-20T03:48:32.775Z,1011.61
2017-11-20T03:49:32.761Z,1011.62
2017-11-20T03:50:32.752Z,1011.60
2017-11-20T03:51:32.744Z,1011.61
2017-11-20T03:52:32.728Z,1011.61
2017-11-20T03:53:32.731Z,1011.60
2017-11-20T03:54:32.711Z,1011.60
2017-11-20T03:55:32.696Z,1011.61
2017-11-20T03:56:32.687Z,1011.62
2017-11-20T03:57:32.691Z,1011.64
2017-11-20T03:58:32.665Z,1011.64
2017-11-20T03:59:32.651Z,1011.59
2017-11-20T04:00:32.643Z,1011.60
2017-11-20T04:01:32.632Z,1011.61
2017-11-20T04:02:32.618Z,1011.57
2017-11-20T04:03:32.609Z,1011.58
2017-11-20T04:04:32.598Z,1011.60
2017-11-20T04:05:32.596Z,1011.63
2017-11-20T04:06:32.577Z,1011.60
2017-11-20T04:07:32.565Z,1011.61
2017-11-20T04:08:32.553Z,1011.62
2017-11-20T04:09:32.544Z,1011.61
2017-11-20T04:10:32.532Z,1011.60
2017-11-20T04:11:32.521Z,1011.54
2017-11-20T04:12:32.509Z,1011.56
2017-11-20T04:13:32.500Z,1011.59
2017-11-20T04:14:32.489Z,1011.56
2017-11-20T04:15:32.485Z,1011.54
2017-11-20T04:16:32.468Z,1011.52
2017-11-20T04:17:32.457Z,1011.54
2017-11-20T04:18:32.444Z,1011.50
2017-11-20T04:19:32.433Z,1011.49
2017-11-20T04:20:32.425Z,1011.48
2017-11-20T04:21:32.410Z,1011.47
2017-11-20T04:22:32.418Z,1011.50
2017-11-20T04:23:32.388Z,1011.52
2017-11-20T04:24:32.377Z,1011.50
2017-11-20T04:25:32.379Z,1011.48
2017-11-20T04:26:32.359Z,1011.54
2017-11-20T04:27:32.345Z,1011.56
2017-11-20T04:28:32.336Z,1011.55
2017-11-20T04:29:32.325Z,1011.56
2017-11-20T04:30:32.313Z,1011.57
2017-11-20T04:31:32.302Z,1011.52
2017-11-20T04:32:32.298Z,1011.55
2017-11-20T04:33:32.281Z,1011.48
2017-11-20T04:34:32.271Z,1011.52
2017-11-20T04:35:32.258Z,1011.56
2017-11-20T04:36:32.247Z,1011.51
2017-11-20T04:37:32.241Z,1011.52
2017-11-20T04:38:32.229Z,1011.53
2017-11-20T04:39:32.217Z,1011.51
2017-11-20T04:40:32.211Z,1011.48
2017-11-20T04:41:32.195Z,1011.51
2017-11-20T04:42:32.230Z,1011.43
2017-11-20T04:43:32.172Z,1011.46
2017-11-20T04:44:32.169Z,1011.48
2017-11-20T04:45:32.169Z,1011.45
2017-11-20T04:46:32.142Z,1011.42
2017-11-20T04:47:32.130Z,1011.41
2017-11-20T04:48:32.116Z,1011.42
2017-11-20T04:49:32.108Z,1011.44
2017-11-20T04:50:32.103Z,1011.37
2017-11-20T04:51:32.104Z,1011.46
2017-11-20T04:52:32.103Z,1011.45
2017-11-20T04:53:32.072Z,1011.48
2017-11-20T04:54:32.054Z,1011.46
2017-11-20T04:55:32.061Z,1011.44
2017-11-20T04:56:32.029Z,1011.42
2017-11-20T04:57:32.020Z,1011.46
2017-11-20T04:58:32.008Z,1011.44
2017-11-20T04:59:32.000Z,1011.45
2017-11-20T05:00:31.987Z,1011.42
2017-11-20T05:01:31.978Z,1011.42
2017-11-20T05:02:31.964Z,1011.39
2017-11-20T05:03:31.961Z,1011.42
2017-11-20T05:04:31.943Z,1011.40
2017-11-20T05:05:31.935Z,1011.38
2017-11-20T05:06:31.921Z,1011.42
2017-11-20T05:07:31.912Z,1011.38
2017-11-20T05:08:31.918Z,1011.40
2017-11-20T05:09:31.893Z,1011.37
2017-11-20T05:10:31.879Z,1011.42
2017-11-20T05:11:31.868Z,1011.35
2017-11-20T05:12:31.856Z,1011.42
2017-11-20T05:13:31.857Z,1011.42
2017-11-20T05:14:31.834Z,1011.41
2017-11-20T05:15:32.116Z,1011.45
2017-11-20T05:16:31.814Z,1011.43
2017-11-20T05:17:31.802Z,1011.46
2017-11-20T05:18:31.792Z,1011.45
2017-11-20T05:19:31.790Z,1011.43
2017-11-20T05:20:31.770Z,1011.41
2017-11-20T05:21:31.760Z,1011.50
2017-11-20T05:22:31.748Z,1011.49
2017-11-20T05:23:31.745Z,1011.46
2017-11-20T05:24:31.730Z,1011.45
2017-11-20T05:25:31.721Z,1011.46
2017-11-20T05:26:31.704Z,1011.44
2017-11-20T05:27:31.693Z,1011.50
2017-11-20T05:28:31.685Z,1011.52
2017-11-20T05:29:31.678Z,1011.53
2017-11-20T05:30:31.660Z,1011.55
2017-11-20T05:31:31.652Z,1011.50
2017-11-20T05:32:31.639Z,1011.47
2017-11-20T05:33:31.629Z,1011.51
2017-11-20T05:34:31.625Z,1011.54
2017-11-20T05:35:31.624Z,1011.57
2017-11-20T05:36:31.597Z,1011.54
2017-11-20T05:37:31.587Z,1011.51
2017-11-20T05:38:31.607Z,1011.55
2017-11-20T05:39:31.564Z,1011.54
2017-11-20T05:40:31.553Z,1011.54
2017-11-20T05:41:31.548Z,1011.53
2017-11-20T05:42:31.531Z,1011.50
2017-11-20T05:43:31.527Z,1011.48
2017-11-20T05:44:31.512Z,1011.51
2017-11-20T05:45:31.596Z,1011.49
2017-11-20T05:46:31.490Z,1011.50
2017-11-20T05:47:31.479Z,1011.44
2017-11-20T05:48:31.469Z,1011.44
2017-11-20T05:49:31.454Z,1011.48
2017-11-20T05:50:31.452Z,1011.50
2017-11-20T05:51:31.434Z,1011.46
2017-11-20T05:52:31.426Z,1011.46
2017-11-20T05:53:31.413Z,1011.40
2017-11-20T05:54:31.401Z,1011.43
2017-11-20T05:55:31.403Z,1011.46
2017-11-20T05:56:31.382Z,1011.44
2017-11-20T05:57:31.370Z,1011.43
2017-11-20T05:58:31.361Z,1011.41
2017-11-20T05:59:31.346Z,1011.40
2017-11-20T06:00:31.340Z,1011.42
2017-11-20T06:01:31.329Z,1011.42
2017-11-20T06:02:31.321Z,1011.44
2017-11-20T06:03:31.306Z,1011.44
2017-11-20T06:04:31.297Z,1011.38
2017-11-20T06:05:31.296Z,1011.41
2017-11-20T06:06:31.273Z,1011.42
2017-11-20T06:07:31.261Z,1011.45
2017-11-20T06:08:31.258Z,1011.48
2017-11-20T06:09:31.239Z,1011.43
2017-11-20T06:10:31.228Z,1011.43
2017-11-20T06:11:31.217Z,1011.44
2017-11-20T06:12:31.206Z,1011.46
2017-11-20T06:13:31.195Z,1011.47
2017-11-20T06:14:31.196Z,1011.50
2017-11-20T06:15:31.174Z,1011.47
2017-11-20T06:16:31.165Z,1011.49
2017-11-20T06:17:31.151Z,1011.50
2017-11-20T06:18:31.144Z,1011.46
2017-11-20T06:19:31.130Z,1011.48
2017-11-20T06:20:31.119Z,1011.47
2017-11-20T06:21:31.114Z,1011.47
2017-11-20T06:22:31.099Z,1011.43
2017-11-20T06:23:31.088Z,1011.51
2017-11-20T06:24:31.075Z,1011.54
2017-11-20T06:25:31.066Z,1011.44
2017-11-20T06:26:31.053Z,1011.56
2017-11-20T06:27:31.042Z,1011.52
2017-11-20T06:28:31.031Z,1011.55
2017-11-20T06:29:31.022Z,1011.50
2017-11-20T06:30:31.011Z,1011.48
2017-11-20T06:31:31.011Z,1011.52
2017-11-20T06:32:30.986Z,1011.51
2017-11-20T06:33:30.980Z,1011.57
2017-11-20T06:34:30.969Z,1011.54
2017-11-20T06:35:30.954Z,1011.47
2017-11-20T06:36:30.951Z,1011.55
2017-11-20T06:37:30.937Z,1011.54
2017-11-20T06:38:30.922Z,1011.51
2017-11-20T06:39:30.936Z,1011.55
2017-11-20T06:40:30.903Z,1011.52
2017-11-20T06:41:30.891Z,1011.53
2017-11-20T06:42:30.879Z,1011.52
2017-11-20T06:43:30.868Z,1011.56
2017-11-20T06:44:30.856Z,1011.52
2017-11-20T06:45:30.847Z,1011.55
2017-11-20T06:46:30.843Z,1011.55
2017-11-20T06:47:30.824Z,1011.54
2017-11-20T06:48:30.811Z,1011.59
2017-11-20T06:49:30.803Z,1011.56
2017-11-20T06:50:30.792Z,1011.54
2017-11-20T06:51:30.782Z,1011.56
2017-11-20T06:52:30.774Z,1011.62
2017-11-20T06:53:30.757Z,1011.62
2017-11-20T06:54:30.782Z,1011.62
2017-11-20T06:55:30.738Z,1011.63
2017-11-20T06:56:30.726Z,1011.55
2017-11-20T06:57:30.722Z,1011.60
2017-11-20T06:58:30.706Z,1011.56
2017-11-20T06:59:30.706Z,1011.58
2017-11-20T07:00:30.682Z,1011.57
2017-11-20T07:01:30.672Z,1011.55
2017-11-20T07:02:30.659Z,1011.57
2017-11-20T07:03:30.648Z,1011.64
2017-11-20T07:04:30.643Z,1011.58
2017-11-20T07:05:30.628Z,1011.58
2017-11-20T07:06:30.620Z,1011.60
2017-11-20T07:07:30.605Z,1011.59
2017-11-20T07:08:30.594Z,1011.61
2017-11-20T07:09:30.583Z,1011.60
2017-11-20T07:10:30.573Z,1011.62
2017-11-20T07:11:30.566Z,1011.67
2017-11-20T07:12:30.558Z,1011.66
2017-11-20T07:13:30.539Z,1011.67
2017-11-20T07:14:30.544Z,1011.69
2017-11-20T07:15:30.518Z,1011.71
2017-11-20T07:16:30.506Z,1011.64
2017-11-20T07:17:30.500Z,1011.73
2017-11-20T07:18:30.491Z,1011.75
2017-11-20T07:19:30.482Z,1011.72
2017-11-20T07:20:30.462Z,1011.70
2017-11-20T07:21:30.450Z,1011.71
2017-11-20T07:22:30.441Z,1011.72
2017-11-20T07:23:30.429Z,1011.73
2017-11-20T07:24:30.417Z,1011.69
2017-11-20T07:25:30.409Z,1011.71
2017-11-20T07:26:30.401Z,1011.71
2017-11-20T07:27:30.384Z,1011.72
2017-11-20T07:28:30.376Z,1011.76
2017-11-20T07:29:30.366Z,1011.73
2017-11-20T07:30:30.352Z,1011.72
2017-11-20T07:31:30.341Z,1011.68
2017-11-20T07:32:30.330Z,1011.74
2017-11-20T07:33:30.323Z,1011.73
2017-11-20T07:34:30.319Z,1011.75
2017-11-20T07:35:30.301Z,1011.73
2017-11-20T07:36:30.286Z,1011.76
2017-11-20T07:37:30.276Z,1011.72
2017-11-20T07:38:30.265Z,1011.72
2017-11-20T07:39:30.257Z,1011.76
2017-11-20T07:40:30.272Z,1011.76
2017-11-20T07:41:30.242Z,1011.75
2017-11-20T07:42:30.218Z,1011.78
2017-11-20T07:43:30.213Z,1011.79
2017-11-20T07:44:30.198Z,1011.79
2017-11-20T07:45:30.188Z,1011.82
2017-11-20T07:46:30.178Z,1011.78
2017-11-20T07:47:30.165Z,1011.79
2017-11-20T07:48:30.152Z,1011.75
2017-11-20T07:49:30.149Z,1011.76
2017-11-20T07:50:30.133Z,1011.74
2017-11-20T07:51:30.123Z,1011.77
2017-11-20T07:52:30.115Z,1011.69
2017-11-20T07:53:30.112Z,1011.73
2017-11-20T07:54:30.088Z,1011.70
2017-11-20T07:55:30.087Z,1011.70
2017-11-20T07:56:30.066Z,1011.78
2017-11-20T07:57:30.055Z,1011.71
2017-11-20T07:58:30.046Z,1011.72
2017-11-20T07:59:30.034Z,1011.69
2017-11-20T08:00:30.022Z,1011.72
2017-11-20T08:01:30.011Z,1011.74
2017-11-20T08:02:30.010Z,1011.66
2017-11-20T08:03:29.989Z,1011.72
2017-11-20T08:04:29.979Z,1011.71
2017-11-20T08:05:29.968Z,1011.75
2017-11-20T08:06:29.956Z,1011.63
2017-11-20T08:07:29.975Z,1011.69
2017-11-20T08:08:29.942Z,1011.72
2017-11-20T08:09:29.924Z,1011.74
2017-11-20T08:10:29.912Z,1011.70
2017-11-20T08:11:29.902Z,1011.73
2017-11-20T08:12:29.891Z,1011.70
2017-11-20T08:13:29.881Z,1011.65
2017-11-20T08:14:29.874Z,1011.68
2017-11-20T08:15:29.856Z,1011.69
2017-11-20T08:16:29.852Z,1011.69
2017-11-20T08:17:29.845Z,1011.66
2017-11-20T08:18:29.827Z,1011.68
2017-11-20T08:19:29.816Z,1011.64
2017-11-20T08:20:29.805Z,1011.62
2017-11-20T08:21:29.803Z,1011.62
2017-11-20T08:22:29.781Z,1011.59
2017-11-20T08:23:29.771Z,1011.57
2017-11-20T08:24:29.759Z,1011.61
2017-11-20T08:25:29.747Z,1011.60
2017-11-20T08:26:29.741Z,1011.59
2017-11-20T08:27:29.726Z,1011.56
2017-11-20T08:28:29.726Z,1011.58
2017-11-20T08:29:29.703Z,1011.59
2017-11-20T08:30:29.694Z,1011.58
2017-11-20T08:31:29.683Z,1011.58
2017-11-20T08:32:29.676Z,1011.56
2017-11-20T08:33:29.660Z,1011.52
2017-11-20T08:34:29.650Z,1011.54
2017-11-20T08:35:29.637Z,1011.52
2017-11-20T08:36:29.628Z,1011.49
2017-11-20T08:37:29.616Z,1011.52
2017-11-20T08:38:29.604Z,1011.52
2017-11-20T08:39:29.597Z,1011.54
2017-11-20T08:40:29.582Z,1011.48
2017-11-20T08:41:29.571Z,1011.48
2017-11-20T08:42:29.562Z,1011.53
2017-11-20T08:43:29.550Z,1011.54
2017-11-20T08:44:29.538Z,1011.39
2017-11-20T08:45:29.528Z,1011.47
2017-11-20T08:46:29.515Z,1011.43
2017-11-20T08:47:29.510Z,1011.47
2017-11-20T08:48:29.501Z,1011.44
2017-11-20T08:49:29.485Z,1011.46
2017-11-20T08:50:29.473Z,1011.44
2017-11-20T08:51:29.460Z,1011.42
2017-11-20T08:52:29.449Z,1011.49
2017-11-20T08:53:29.440Z,1011.40
2017-11-20T08:54:29.436Z,1011.51
2017-11-20T08:55:29.421Z,1011.51
2017-11-20T08:56:29.407Z,1011.48
2017-11-20T08:57:29.395Z,1011.45
2017-11-20T08:58:29.383Z,1011.41
2017-11-20T08:59:29.378Z,1011.44
2017-11-20T09:00:29.360Z,1011.37
2017-11-20T09:01:29.349Z,1011.38
2017-11-20T09:02:29.339Z,1011.36
2017-11-20T09:03:29.325Z,1011.31
2017-11-20T09:04:29.318Z,1011.35
2017-11-20T09:05:29.305Z,1011.34
2017-11-20T09:06:29.296Z,1011.39
2017-11-20T09:07:29.281Z,1011.37
2017-11-20T09:08:29.272Z,1011.35
2017-11-20T09:09:29.263Z,1011.39
2017-11-20T09:10:29.250Z,1011.41
2017-11-20T09:11:29.238Z,1011.42
2017-11-20T09:12:29.227Z,1011.37
2017-11-20T09:13:29.215Z,1011.39
2017-11-20T09:14:29.208Z,1011.35
2017-11-20T09:15:29.213Z,1011.38
2017-11-20T09:16:29.182Z,1011.41
2017-11-20T09:17:29.186Z,1011.36
2017-11-20T09:18:29.158Z,1011.38
2017-11-20T09:19:29.152Z,1011.37
2017-11-20T09:20:29.135Z,1011.39
2017-11-20T09:21:29.143Z,1011.40
2017-11-20T09:22:29.114Z,1011.37
2017-11-20T09:23:29.108Z,1011.26
2017-11-20T09:24:29.091Z,1011.30
2017-11-20T09:25:29.103Z,1011.22
2017-11-20T09:26:29.070Z,1011.25
2017-11-20T09:27:29.063Z,1011.25
2017-11-20T09:28:29.047Z,1011.25
2017-11-20T09:29:29.039Z,1011.21
2017-11-20T09:30:29.026Z,1011.21
2017-11-20T09:31:29.017Z,1011.16
2017-11-20T09:32:29.004Z,1011.18
2017-11-20T09:33:28.996Z,1011.25
2017-11-20T09:34:28.980Z,1011.23
2017-11-20T09:35:28.968Z,1011.24
2017-11-20T09:36:28.957Z,1011.23
2017-11-20T09:37:28.946Z,1011.31
2017-11-20T09:38:28.942Z,1011.22
2017-11-20T09:39:28.924Z,1011.17
2017-11-20T09:40:28.917Z,1011.18
2017-11-20T09:41:28.901Z,1011.15
2017-11-20T09:42:28.898Z,1011.12
2017-11-20T09:43:28.878Z,1011.16
2017-11-20T09:44:28.867Z,1011.15
2017-11-20T09:45:28.855Z,1011.18
2017-11-20T09:46:28.852Z,1011.19
2017-11-20T09:47:28.834Z,1011.17
2017-11-20T09:48:28.823Z,1011.18
2017-11-20T09:49:28.811Z,1011.14
2017-11-20T09:50:28.807Z,1011.12
2017-11-20T09:51:28.788Z,1011.00
2017-11-20T09:52:28.776Z,1011.09
2017-11-20T09:53:28.770Z,1011.08
2017-11-20T09:54:28.754Z,1011.04
2017-11-20T09:55:28.742Z,1010.94
2017-11-20T09:56:28.734Z,1011.02
2017-11-20T09:57:28.721Z,1011.06
2017-11-20T09:58:28.713Z,1011.05
2017-11-20T09:59:28.698Z,1011.05
2017-11-20T10:00:28.686Z,1011.03
2017-11-20T10:01:28.678Z,1010.99
2017-11-20T10:02:28.663Z,1011.00
2017-11-20T10:03:28.652Z,1010.97
2017-11-20T10:04:28.638Z,1010.98
2017-11-20T10:05:28.633Z,1011.03
2017-11-20T10:06:28.618Z,1010.97
2017-11-20T10:07:28.611Z,1010.98
2017-11-20T10:08:28.596Z,1010.93
2017-11-20T10:09:28.588Z,1010.92
2017-11-20T10:10:28.573Z,1010.96
2017-11-20T10:11:28.561Z,1010.96
2017-11-20T10:12:28.552Z,1010.93
2017-11-20T10:13:28.548Z,1010.86
2017-11-20T10:14:28.526Z,1010.82
2017-11-20T10:15:28.518Z,1010.84
2017-11-20T10:16:28.505Z,1010.82
2017-11-20T10:17:28.492Z,1010.79
2017-11-20T10:18:28.481Z,1010.80
2017-11-20T10:19:28.470Z,1010.87
2017-11-20T10:20:28.460Z,1010.84
2017-11-20T10:21:28.447Z,1010.82
2017-11-20T10:22:28.439Z,1010.76
2017-11-20T10:23:28.426Z,1010.81
2017-11-20T10:24:28.414Z,1010.84
2017-11-20T10:25:28.400Z,1010.76
2017-11-20T10:26:28.399Z,1010.73
2017-11-20T10:27:28.379Z,1010.75
2017-11-20T10:28:28.366Z,1010.68
2017-11-20T10:29:28.357Z,1010.69
2017-11-20T10:30:28.348Z,1010.68
2017-11-20T10:31:28.333Z,1010.63
2017-11-20T10:32:28.321Z,1010.60
2017-11-20T10:33:28.313Z,1010.61
2017-11-20T10:34:28.317Z,1010.62
2017-11-20T10:35:28.287Z,1010.59
2017-11-20T10:36:28.277Z,1010.62
2017-11-20T10:37:28.267Z,1010.56
2017-11-20T10:38:28.253Z,1010.52
2017-11-20T10:39:28.245Z,1010.48
2017-11-20T10:40:28.231Z,1010.53
2017-11-20T10:41:28.253Z,1010.49
2017-11-20T10:42:28.208Z,1010.50
2017-11-20T10:43:28.200Z,1010.51
2017-11-20T10:44:28.185Z,1010.45
2017-11-20T10:45:28.176Z,1010.42
2017-11-20T10:46:28.164Z,1010.39
2017-11-20T10:47:28.149Z,1010.42
2017-11-20T10:48:28.139Z,1010.42
2017-11-20T10:49:28.130Z,1010.44
2017-11-20T10:50:28.116Z,1010.39
2017-11-20T10:51:28.105Z,1010.42
2017-11-20T10:52:28.092Z,1010.38
2017-11-20T10:53:28.085Z,1010.40
2017-11-20T10:54:28.072Z,1010.43
2017-11-20T10:55:28.060Z,1010.43
2017-11-20T10:56:28.048Z,1010.43
2017-11-20T10:57:28.037Z,1010.40
2017-11-20T10:58:28.025Z,1010.39
2017-11-20T10:59:28.016Z,1010.34
2017-11-20T11:00:28.004Z,1010.39
2017-11-20T11:01:27.992Z,1010.31
2017-11-20T11:02:27.985Z,1010.33
2017-11-20T11:03:27.969Z,1010.37
2017-11-20T11:04:27.960Z,1010.36
2017-11-20T11:05:27.945Z,1010.40
2017-11-20T11:06:27.934Z,1010.36
2017-11-20T11:07:27.922Z,1010.31
2017-11-20T11:08:27.915Z,1010.27
2017-11-20T11:09:27.900Z,1010.27
2017-11-20T11:10:27.888Z,1010.33
2017-11-20T11:11:27.877Z,1010.24
2017-11-20T11:12:27.867Z,1010.19
2017-11-20T11:13:27.854Z,1010.05
2017-11-20T11:14:27.843Z,1010.16
2017-11-20T11:15:27.832Z,1010.20
2017-11-20T11:16:27.824Z,1010.07
2017-11-20T11:17:27.810Z,1010.11
2017-11-20T11:18:27.801Z,1010.02
2017-11-20T11:19:27.793Z,1010.03
2017-11-20T11:20:27.775Z,1010.06
2017-11-20T11:21:27.763Z,1010.05
2017-11-20T11:22:27.759Z,1010.05
2017-11-20T11:23:27.740Z,1010.00
2017-11-20T11:24:27.733Z,1009.97
2017-11-20T11:25:27.722Z,1010.00
2017-11-20T11:26:27.708Z,1009.99
2017-11-20T11:27:27.697Z,1009.98
2017-11-20T11:28:27.685Z,1009.95
2017-11-20T11:29:27.673Z,1009.93
2017-11-20T11:30:27.662Z,1009.87
2017-11-20T11:31:27.651Z,1009.88
2017-11-20T11:32:27.638Z,1009.83
2017-11-20T11:33:27.633Z,1009.83
2017-11-20T11:34:27.616Z,1009.85
2017-11-20T11:35:27.604Z,1009.81
2017-11-20T11:36:27.613Z,1009.77
2017-11-20T11:37:27.582Z,1009.76
2017-11-20T11:38:27.573Z,1009.76
2017-11-20T11:39:27.560Z,1009.72
2017-11-20T11:40:27.547Z,1009.72
2017-11-20T11:41:27.558Z,1009.75
2017-11-20T11:42:27.525Z,1009.69
2017-11-20T11:43:27.512Z,1009.83
2017-11-20T11:44:27.516Z,1009.63
2017-11-20T11:45:27.497Z,1009.67
2017-11-20T11:46:27.479Z,1009.66
2017-11-20T11:47:27.468Z,1009.65
2017-11-20T11:48:27.455Z,1009.65
2017-11-20T11:49:27.444Z,1009.57
2017-11-20T11:50:27.434Z,1009.57
2017-11-20T11:51:27.424Z,1009.50
2017-11-20T11:52:27.409Z,1009.52
2017-11-20T11:53:27.407Z,1009.54
2017-11-20T11:54:27.386Z,1009.50
2017-11-20T11:55:27.377Z,1009.49
2017-11-20T11:56:27.365Z,1009.46
2017-11-20T11:57:27.352Z,1009.45
2017-11-20T11:58:27.341Z,1009.42
2017-11-20T11:59:27.331Z,1009.34
2017-11-20T12:00:27.318Z,1009.40
2017-11-20T12:01:27.321Z,1009.36
2017-11-20T12:02:27.297Z,1009.41
2017-11-20T12:03:27.283Z,1009.32
2017-11-20T12:04:27.284Z,1009.34
2017-11-20T12:05:27.261Z,1009.35